Time;durP1;ratioP1;P1;durP2;ratioP2;P2;SDS_P1;SDS_P2;PMS_P1;PMS_P2;Temp;Humidity;BMP_temperature;BMP_pressure;BME280_temperature;BME280_humidity;BME280_pressure;Samples;Min_cycle;Max_cycle;Signal;HPM_P1;HPM_P2
2023/02/03 00:01:07;;;;;;;26.73;15.30;;;9.00;99.90;;;;;;2615982;39;20535;-78
2023/02/03 00:06:55;;;;;;;23.33;14.27;;;9.00;99.90;;;;;;2616165;54;20245;-78
2023/02/03 00:16:08;;;;;;;15.10;12.00;;;9.10;99.90;;;;;;2614547;54;20515;-78
2023/02/03 00:21:55;;;;;;;15.20;10.50;;;9.10;99.90;;;;;;2615181;54;20399;-78
2023/02/03 00:27:44;;;;;;;19.17;15.30;;;9.10;99.90;;;;;;2616344;54;20450;-78
2023/02/03 00:33:32;;;;;;;19.60;12.93;;;9.10;99.90;;;;;;2615310;54;20408;-77
2023/02/03 00:39:20;;;;;;;16.17;11.70;;;9.00;99.90;;;;;;2616093;54;20383;-77
2023/02/03 00:45:08;;;;;;;22.23;12.00;;;9.10;99.90;;;;;;2615888;39;20512;-78
2023/02/03 00:50:55;;;;;;;22.50;15.80;;;9.00;99.90;;;;;;2614371;54;20434;-78
2023/02/03 00:53:21;;;;;;;24.63;16.23;;;9.00;99.90;;;;;;2614996;39;20829;-79
2023/02/03 00:55:47;;;;;;;21.90;14.43;;;9.00;99.90;;;;;;2614998;54;20174;-78
2023/02/03 01:01:35;;;;;;;23.60;15.23;;;9.10;99.90;;;;;;2615666;54;20166;-78
2023/02/03 01:07:23;;;;;;;20.87;15.20;;;9.10;99.90;;;;;;2615832;54;20387;-77
2023/02/03 01:16:37;;;;;;;20.67;13.63;;;9.10;99.90;;;;;;2615356;54;20941;-79
2023/02/03 01:22:24;;;;;;;20.97;15.53;;;9.10;99.90;;;;;;2614343;54;20427;-77
2023/02/03 01:28:12;;;;;;;24.50;15.63;;;9.20;99.90;;;;;;2615997;54;20123;-78
2023/02/03 01:34:00;;;;;;;21.93;13.77;;;9.20;99.90;;;;;;2614775;54;20451;-77
2023/02/03 01:39:48;;;;;;;24.27;14.60;;;9.10;99.90;;;;;;2615561;39;20512;-79
2023/02/03 01:45:37;;;;;;;20.80;14.37;;;9.10;99.90;;;;;;2614866;46;20243;-77
2023/02/03 01:51:25;;;;;;;23.50;15.30;;;9.10;99.90;;;;;;2615821;39;20779;-78
2023/02/03 01:57:18;;;;;;;17.03;12.10;;;9.10;99.90;;;;;;2615411;54;20430;-79
2023/02/03 02:03:07;;;;;;;17.43;13.17;;;9.10;99.90;;;;;;2615044;39;20788;-77
2023/02/03 02:08:59;;;;;;;21.90;12.13;;;9.10;99.90;;;;;;2615263;54;20960;-77
2023/02/03 02:11:56;;;;;;;22.63;11.57;;;9.10;99.90;;;;;;2614390;39;20814;-77
2023/02/03 02:14:22;;;;;;;16.13;10.67;;;9.10;99.90;;;;;;2614902;54;20408;-78
2023/02/03 02:52:54;;;;;;;16.97;12.70;;;9.20;99.90;;;;;;2615848;54;20940;-75
2023/02/03 02:58:46;;;;;;;16.93;12.70;;;9.10;99.90;;;;;;2616055;54;20459;-78
2023/02/03 03:04:34;;;;;;;19.53;11.60;;;9.10;99.90;;;;;;2616205;54;20372;-76
2023/02/03 03:10:26;;;;;;;18.17;11.47;;;9.10;99.90;;;;;;2615735;54;20438;-78
2023/02/03 03:16:17;;;;;;;9.93;8.50;;;9.10;99.90;;;;;;2615853;54;21067;-77
2023/02/03 03:22:10;;;;;;;12.30;8.60;;;9.10;99.90;;;;;;2615825;54;20399;-78
2023/02/03 03:28:05;;;;;;;11.50;7.70;;;9.10;99.90;;;;;;2615725;54;20982;-78
2023/02/03 03:33:52;;;;;;;13.33;6.70;;;9.20;99.90;;;;;;2614056;54;20411;-80
2023/02/03 03:43:23;;;;;;;7.63;6.67;;;9.10;99.90;;;;;;2614533;54;20426;-76
2023/02/03 03:49:12;;;;;;;9.40;7.67;;;9.10;99.90;;;;;;2614254;39;20795;-78
2023/02/03 03:55:02;;;;;;;15.30;8.50;;;9.10;99.90;;;;;;2614293;54;20399;-76
2023/02/03 04:00:52;;;;;;;8.60;7.40;;;9.20;99.90;;;;;;2613919;54;20371;-77
2023/02/03 04:06:40;;;;;;;10.43;7.57;;;9.20;99.90;;;;;;2615423;54;20391;-76
2023/02/03 04:22:54;;;;;;;9.50;6.30;;;9.20;99.90;;;;;;2613545;54;20387;-77
2023/02/03 04:28:42;;;;;;;11.90;7.30;;;9.20;99.90;;;;;;2612898;54;20130;-76
2023/02/03 04:34:30;;;;;;;7.27;5.07;;;9.20;99.90;;;;;;2613920;54;21093;-76
2023/02/03 04:40:17;;;;;;;18.17;7.23;;;9.20;99.90;;;;;;2613942;54;20130;-77
2023/02/03 04:46:04;;;;;;;9.90;5.73;;;9.20;99.90;;;;;;2613503;31;20815;-77
2023/02/03 04:51:51;;;;;;;8.10;6.30;;;9.20;99.90;;;;;;2615678;54;20130;-77
2023/02/03 04:57:38;;;;;;;9.07;6.17;;;9.20;99.90;;;;;;2614799;54;20203;-75
2023/02/03 05:03:26;;;;;;;12.63;7.40;;;9.20;99.90;;;;;;2614753;31;20630;-76
2023/02/03 05:09:14;;;;;;;11.00;7.17;;;9.20;99.90;;;;;;2615193;54;20645;-76
2023/02/03 05:11:58;;;;;;;9.63;7.87;;;9.10;99.90;;;;;;2615024;46;20438;-76
2023/02/03 05:14:24;;;;;;;9.40;5.60;;;9.20;99.90;;;;;;2614497;47;20508;-77
2023/02/03 05:20:12;;;;;;;28.83;6.50;;;9.10;99.90;;;;;;2614589;54;20130;-77
2023/02/03 05:25:59;;;;;;;13.47;8.37;;;9.10;99.90;;;;;;2616054;54;20150;-78
2023/02/03 05:31:47;;;;;;;6.80;5.03;;;9.20;99.90;;;;;;2613831;54;20134;-77
2023/02/03 05:37:35;;;;;;;8.00;5.47;;;9.10;99.90;;;;;;2614948;54;20131;-77
2023/02/03 05:43:23;;;;;;;7.33;5.30;;;9.20;99.90;;;;;;2614953;54;20936;-77
2023/02/03 05:49:11;;;;;;;9.40;6.13;;;9.20;99.90;;;;;;2614581;54;20134;-78
2023/02/03 05:54:59;;;;;;;6.77;5.17;;;9.20;99.90;;;;;;2615092;54;20123;-80
2023/02/03 06:00:47;;;;;;;14.87;6.63;;;9.20;99.90;;;;;;2615838;39;20820;-78
2023/02/03 06:06:35;;;;;;;7.03;4.73;;;9.30;99.90;;;;;;2615863;54;20147;-78
2023/02/03 06:16:29;;;;;;;7.43;5.67;;;9.20;99.90;;;;;;2615244;54;20391;-77
2023/02/03 06:22:16;;;;;;;13.77;5.50;;;9.20;99.90;;;;;;2614064;54;20424;-76
2023/02/03 06:28:04;;;;;;;5.20;3.87;;;9.20;99.90;;;;;;2613362;54;20135;-76
2023/02/03 06:31:07;;;;;;;6.77;5.00;;;9.20;99.90;;;;;;2614339;54;20514;-77
2023/02/03 06:33:33;;;;;;;8.80;4.53;;;9.20;99.90;;;;;;2612769;47;20178;-77
2023/02/03 06:39:21;;;;;;;11.50;4.00;;;9.20;99.90;;;;;;2616051;54;20390;-76
2023/02/03 06:45:09;;;;;;;10.70;5.10;;;9.10;99.90;;;;;;2615440;54;20672;-77
2023/02/03 06:50:56;;;;;;;8.40;4.20;;;9.10;99.90;;;;;;2615231;54;20941;-78
2023/02/03 06:56:44;;;;;;;6.80;5.50;;;9.00;99.90;;;;;;2615745;54;20161;-77
2023/02/03 07:02:32;;;;;;;6.60;4.17;;;9.10;99.90;;;;;;2615529;54;20428;-77
2023/02/03 07:08:20;;;;;;;6.17;4.57;;;9.00;99.90;;;;;;2613992;54;20147;-78
2023/02/03 07:14:07;;;;;;;10.53;5.97;;;8.80;99.90;;;;;;2613549;54;20185;-77
2023/02/03 07:19:55;;;;;;;7.57;5.23;;;9.00;99.90;;;;;;2614700;54;20154;-77
2023/02/03 07:25:43;;;;;;;11.83;5.93;;;9.20;99.90;;;;;;2615497;54;20126;-78
2023/02/03 07:31:31;;;;;;;9.60;5.20;;;9.30;99.90;;;;;;2614933;54;20153;-77
2023/02/03 07:37:19;;;;;;;6.63;5.27;;;9.30;99.90;;;;;;2616621;54;20665;-76
2023/02/03 07:43:06;;;;;;;11.83;6.50;;;9.40;99.90;;;;;;2613941;54;20173;-76
2023/02/03 07:48:54;;;;;;;8.63;5.90;;;9.30;99.90;;;;;;2614992;54;20185;-76
2023/02/03 07:54:42;;;;;;;9.63;5.10;;;9.50;99.90;;;;;;2615981;54;20170;-77
2023/02/03 08:00:30;;;;;;;9.47;5.10;;;9.40;99.90;;;;;;2614201;39;20252;-77
2023/02/03 08:06:20;;;;;;;8.20;4.83;;;9.40;99.90;;;;;;2615392;54;20122;-77
2023/02/03 08:18:52;;;;;;;8.90;5.37;;;9.50;99.90;;;;;;2614095;39;20770;-76
2023/02/03 08:24:44;;;;;;;5.10;4.60;;;9.50;99.90;;;;;;2615211;54;20242;-76
2023/02/03 08:30:31;;;;;;;7.00;5.33;;;9.50;99.90;;;;;;2611767;54;20399;-76
2023/02/03 08:36:19;;;;;;;11.00;5.17;;;9.50;99.90;;;;;;2615092;54;20150;-77
2023/02/03 08:42:07;;;;;;;6.13;4.33;;;9.50;99.90;;;;;;2614092;54;20134;-78
2023/02/03 08:47:56;;;;;;;10.30;4.50;;;9.50;99.90;;;;;;2615146;54;21022;-77
2023/02/03 08:53:43;;;;;;;7.00;5.47;;;9.40;99.90;;;;;;2614412;46;20399;-77
2023/02/03 08:59:34;;;;;;;8.80;5.27;;;9.50;99.90;;;;;;2616156;39;20532;-76
2023/02/03 09:05:22;;;;;;;4.77;4.07;;;9.40;99.90;;;;;;2614810;54;20394;-77
2023/02/03 09:11:15;;;;;;;7.53;4.10;;;9.50;99.90;;;;;;2614651;54;20130;-76
2023/02/03 09:17:04;;;;;;;6.03;5.43;;;9.50;99.90;;;;;;2615637;54;20491;-77
2023/02/03 09:22:53;;;;;;;6.50;4.50;;;9.50;99.90;;;;;;2614443;54;20400;-77
2023/02/03 09:28:41;;;;;;;6.17;5.57;;;9.60;99.90;;;;;;2615635;54;20399;-76
2023/02/03 09:34:29;;;;;;;4.93;4.43;;;9.60;99.90;;;;;;2615814;54;20145;-77
2023/02/03 09:46:55;;;;;;;15.20;5.20;;;9.60;99.90;;;;;;2615761;54;20403;-77
2023/02/03 09:52:43;;;;;;;8.80;5.10;;;9.60;99.90;;;;;;2615107;54;20396;-76
2023/02/03 09:58:34;;;;;;;8.20;6.13;;;9.70;99.90;;;;;;2615762;54;20130;-78
2023/02/03 10:04:28;;;;;;;8.77;4.40;;;9.70;99.90;;;;;;2615321;39;20857;-77
2023/02/03 10:20:09;;;;;;;10.80;6.40;;;9.80;99.90;;;;;;2614245;54;20540;-76
2023/02/03 10:25:59;;;;;;;12.00;6.10;;;9.80;99.90;;;;;;2613859;39;20551;-76
2023/02/03 10:31:48;;;;;;;10.80;5.80;;;9.80;99.90;;;;;;2614342;54;20415;-76
2023/02/03 10:37:49;;;;;;;7.57;5.20;;;9.80;99.90;;;;;;2614550;54;20398;-76
2023/02/03 10:49:44;;;;;;;8.77;7.20;;;9.90;99.90;;;;;;2613936;54;20408;-76
2023/02/03 10:55:32;;;;;;;11.07;7.97;;;10.00;99.90;;;;;;2616268;54;20464;-77
2023/02/03 11:01:25;;;;;;;12.27;7.43;;;10.10;99.90;;;;;;2616210;54;20162;-78
2023/02/03 11:10:39;;;;;;;12.33;7.27;;;10.00;99.90;;;;;;2616411;54;20398;-78
2023/02/03 11:22:55;;;;;;;11.93;6.90;;;10.10;99.90;;;;;;2616343;54;20420;-77
2023/02/03 11:28:46;;;;;;;6.73;5.93;;;10.10;99.90;;;;;;2616227;54;20126;-76
2023/02/03 11:34:37;;;;;;;8.33;5.67;;;10.20;99.90;;;;;;2616637;54;20418;-77
2023/02/03 11:40:27;;;;;;;11.20;7.67;;;10.20;99.90;;;;;;2616113;54;20398;-77
2023/02/03 11:46:15;;;;;;;11.83;5.93;;;10.20;99.90;;;;;;2615168;54;20848;-76
2023/02/03 11:52:21;;;;;;;11.70;7.60;;;10.20;99.90;;;;;;2616382;54;20380;-77
2023/02/03 11:58:46;;;;;;;12.10;6.90;;;10.20;99.90;;;;;;2613626;54;20387;-77
2023/02/03 12:11:55;;;;;;;6.40;5.80;;;10.30;99.90;;;;;;2614744;54;20411;-77
2023/02/03 12:17:55;;;;;;;11.20;6.10;;;10.30;99.90;;;;;;2614441;54;20437;-77
2023/02/03 12:24:00;;;;;;;11.73;5.77;;;10.30;99.90;;;;;;2615311;54;20998;-77
2023/02/03 12:27:04;;;;;;;13.27;5.07;;;10.30;99.90;;;;;;2615414;46;20428;-78
2023/02/03 12:29:40;;;;;;;10.90;6.77;;;10.10;99.90;;;;;;2615288;54;21115;-79
2023/02/03 12:35:38;;;;;;;15.20;6.60;;;10.20;99.90;;;;;;2615427;54;20424;-77
2023/02/03 12:41:30;;;;;;;8.67;6.73;;;10.20;99.90;;;;;;2615189;54;20387;-77
2023/02/03 12:47:28;;;;;;;10.10;6.30;;;10.30;99.90;;;;;;2613434;54;20957;-78
2023/02/03 12:53:29;;;;;;;18.23;6.13;;;10.30;99.90;;;;;;2614898;54;20383;-77
2023/02/03 12:59:39;;;;;;;14.03;5.10;;;10.40;99.90;;;;;;2613493;54;20392;-77
2023/02/03 13:22:25;;;;;;;7.20;5.47;;;10.50;99.90;;;;;;2613274;54;20415;-76
2023/02/03 13:28:18;;;;;;;12.83;6.27;;;10.60;99.90;;;;;;2611851;54;20394;-77
2023/02/03 13:34:32;;;;;;;12.77;5.67;;;10.60;99.90;;;;;;2612419;54;20386;-77
2023/02/03 13:43:51;;;;;;;5.20;4.20;;;10.50;99.90;;;;;;2612789;54;20955;-77
2023/02/03 13:57:12;;;;;;;10.60;4.23;;;10.40;99.90;;;;;;2613644;54;20388;-77
2023/02/03 14:02:59;;;;;;;7.40;4.30;;;10.10;99.90;;;;;;2612966;54;20387;-77
2023/02/03 14:08:48;;;;;;;11.70;7.20;;;9.90;99.90;;;;;;2611728;54;20135;-78
2023/02/03 14:14:35;;;;;;;5.10;2.87;;;9.10;99.90;;;;;;2611158;54;20396;-78
2023/02/03 14:17:53;;;;;;;14.17;5.70;;;8.80;99.90;;;;;;2611832;47;20422;-78
2023/02/03 14:26:47;;;;;;;15.67;6.30;;;8.30;99.90;;;;;;2612804;54;20535;-77
2023/02/03 14:32:52;;;;;;;13.77;5.83;;;8.40;99.90;;;;;;2614349;54;20419;-77
2023/02/03 14:38:40;;;;;;;12.97;6.27;;;8.40;99.90;;;;;;2614598;54;20394;-77
2023/02/03 14:51:12;;;;;;;14.97;6.47;;;8.70;99.90;;;;;;2615339;54;20391;-76
2023/02/03 15:03:29;;;;;;;15.73;4.83;;;8.90;99.90;;;;;;2614967;54;20415;-76
2023/02/03 15:15:49;;;;;;;24.83;6.30;;;8.80;99.90;;;;;;2613953;54;20471;-79
2023/02/03 15:25:04;;;;;;;23.27;5.77;;;8.90;99.90;;;;;;2615251;54;20531;-78
2023/02/03 15:43:40;;;;;;;16.00;4.70;;;9.00;99.90;;;;;;2614636;54;20361;-77
2023/02/03 15:49:39;;;;;;;15.50;6.57;;;8.90;99.90;;;;;;2615276;54;20410;-78
2023/02/03 15:55:36;;;;;;;19.90;5.40;;;8.90;99.90;;;;;;2615709;54;20380;-77
2023/02/03 16:01:25;;;;;;;18.67;6.20;;;8.90;99.90;;;;;;2613383;54;20387;-78
2023/02/03 16:07:20;;;;;;;22.33;6.73;;;8.80;99.90;;;;;;2613431;39;20748;-78
2023/02/03 16:13:23;;;;;;;14.10;5.80;;;8.90;99.90;;;;;;2613624;54;20415;-76
2023/02/03 16:19:16;;;;;;;15.03;5.50;;;8.80;99.90;;;;;;2613472;54;20383;-77
2023/02/03 16:25:20;;;;;;;20.67;6.93;;;8.90;99.90;;;;;;2615499;54;20516;-77
2023/02/03 16:56:03;;;;;;;11.63;6.03;;;8.80;99.90;;;;;;2613615;54;21026;-76
2023/02/03 17:01:50;;;;;;;16.57;6.17;;;8.80;99.90;;;;;;2612335;54;20394;-78
2023/02/03 17:07:38;;;;;;;19.10;7.60;;;8.80;99.90;;;;;;2613482;54;20142;-76
2023/02/03 17:13:28;;;;;;;14.97;5.90;;;8.70;99.90;;;;;;2612343;54;20247;-76
2023/02/03 17:19:16;;;;;;;18.77;7.03;;;8.80;99.90;;;;;;2610711;54;20367;-76
2023/02/03 17:25:04;;;;;;;19.07;7.60;;;8.70;99.90;;;;;;2613955;54;20122;-76
2023/02/03 17:31:00;;;;;;;12.20;5.53;;;8.80;99.90;;;;;;2613308;39;20790;-76
2023/02/03 17:36:47;;;;;;;22.93;8.20;;;8.70;99.90;;;;;;2613819;54;20470;-78
2023/02/03 17:42:35;;;;;;;13.10;6.70;;;8.70;99.90;;;;;;2613902;54;20141;-78
2023/02/03 17:48:23;;;;;;;13.53;7.20;;;8.70;99.90;;;;;;2615281;39;20497;-77
2023/02/03 17:54:11;;;;;;;16.00;8.60;;;8.80;99.90;;;;;;2615542;54;20146;-77
2023/02/03 17:59:59;;;;;;;17.20;8.13;;;8.70;99.90;;;;;;2614547;54;20170;-77
2023/02/03 18:05:50;;;;;;;22.33;9.17;;;8.70;99.90;;;;;;2614033;54;20162;-77
2023/02/03 18:11:39;;;;;;;24.37;9.83;;;8.70;99.90;;;;;;2612646;39;20794;-77
2023/02/03 18:17:26;;;;;;;20.70;8.73;;;8.70;99.90;;;;;;2613346;46;20410;-78
2023/02/03 18:20:43;;;;;;;25.13;9.97;;;8.70;99.90;;;;;;2612975;54;20420;-77
2023/02/03 18:23:09;;;;;;;14.10;7.53;;;8.60;99.90;;;;;;2614535;54;20701;-76
2023/02/03 18:26:12;;;;;;;15.07;6.93;;;8.60;99.90;;;;;;2614704;54;20423;-77
2023/02/03 18:28:39;;;;;;;24.07;7.90;;;8.60;99.90;;;;;;2614823;54;20664;-77
2023/02/03 18:34:27;;;;;;;22.37;8.67;;;8.60;99.90;;;;;;2614435;54;20474;-77
2023/02/03 18:40:15;;;;;;;24.50;9.30;;;8.50;99.90;;;;;;2613840;54;20129;-77
2023/02/03 18:46:15;;;;;;;32.10;19.13;;;8.50;99.90;;;;;;2614368;54;20399;-78
2023/02/03 18:52:03;;;;;;;19.40;8.50;;;8.30;99.90;;;;;;2615157;39;20791;-77
2023/02/03 18:57:51;;;;;;;25.60;7.70;;;8.20;99.90;;;;;;2615143;54;20379;-81
2023/02/03 19:03:39;;;;;;;23.40;5.73;;;8.20;99.90;;;;;;2613086;54;20130;-77
2023/02/03 19:09:27;;;;;;;15.60;6.63;;;8.10;99.90;;;;;;2614129;54;20729;-77
2023/02/03 19:15:14;;;;;;;17.17;4.63;;;8.20;99.90;;;;;;2613333;54;20134;-77
2023/02/03 19:25:14;;;;;;;18.07;8.30;;;8.10;99.90;;;;;;2615767;39;20781;-77
2023/02/03 19:31:07;;;;;;;28.80;5.17;;;8.10;99.90;;;;;;2613615;54;20395;-78
2023/02/03 19:36:57;;;;;;;15.57;5.63;;;8.10;99.90;;;;;;2614163;54;20949;-76
2023/02/03 19:42:45;;;;;;;19.10;6.30;;;8.10;99.90;;;;;;2614616;54;20960;-76
2023/02/03 19:48:33;;;;;;;19.47;6.20;;;8.20;99.90;;;;;;2612957;39;20448;-77
2023/02/03 19:54:21;;;;;;;12.57;5.73;;;8.10;99.90;;;;;;2615549;39;20896;-77
2023/02/03 20:00:09;;;;;;;18.40;5.93;;;8.00;99.90;;;;;;2615651;54;21051;-76
2023/02/03 20:05:57;;;;;;;17.70;6.43;;;7.80;99.90;;;;;;2615109;54;20455;-77
2023/02/03 20:11:45;;;;;;;21.90;5.80;;;8.00;99.90;;;;;;2615693;54;20126;-75
2023/02/03 20:17:33;;;;;;;15.43;6.93;;;8.00;99.90;;;;;;2615546;39;20525;-77
2023/02/03 20:20:44;;;;;;;16.07;6.63;;;7.90;99.90;;;;;;2612331;47;20400;-76
2023/02/03 20:23:09;;;;;;;24.10;6.23;;;7.90;99.90;;;;;;2614458;47;20718;-76
2023/02/03 20:28:57;;;;;;;22.63;7.17;;;7.90;99.90;;;;;;2615280;46;20157;-76
2023/02/03 20:34:45;;;;;;;18.00;7.70;;;8.00;99.90;;;;;;2613718;54;20166;-76
2023/02/03 20:40:33;;;;;;;23.77;6.30;;;7.90;99.90;;;;;;2615618;54;20431;-75
2023/02/03 20:46:21;;;;;;;30.57;6.77;;;7.90;99.90;;;;;;2614922;39;20338;-77
2023/02/03 20:52:14;;;;;;;24.70;7.07;;;7.90;99.90;;;;;;2614349;39;20585;-76
2023/02/03 20:58:03;;;;;;;12.27;5.93;;;7.90;99.90;;;;;;2614448;54;20384;-77
2023/02/03 21:09:58;;;;;;;15.40;7.23;;;7.90;99.90;;;;;;2614583;54;20383;-77
2023/02/03 21:15:48;;;;;;;17.33;6.90;;;7.90;99.90;;;;;;2615481;54;21011;-76
2023/02/03 21:21:39;;;;;;;20.43;6.93;;;7.90;99.90;;;;;;2612838;54;20463;-77
2023/02/03 21:27:32;;;;;;;15.60;7.23;;;7.90;99.90;;;;;;2614054;54;20932;-75
2023/02/03 21:39:53;;;;;;;17.87;5.63;;;7.80;99.90;;;;;;2615724;54;20694;-75
2023/02/03 21:45:42;;;;;;;26.20;7.50;;;7.90;99.90;;;;;;2615694;54;20226;-75
2023/02/03 21:51:33;;;;;;;17.17;6.43;;;7.90;99.90;;;;;;2614004;54;20395;-76
2023/02/03 21:57:21;;;;;;;25.17;6.73;;;7.80;99.90;;;;;;2614741;54;20419;-77
2023/02/03 22:09:25;;;;;;;18.00;5.53;;;7.80;99.90;;;;;;2615800;54;20371;-77
2023/02/03 22:15:13;;;;;;;17.13;6.27;;;7.80;99.90;;;;;;2614381;54;20407;-77
2023/02/03 22:25:19;;;;;;;21.20;6.77;;;7.80;99.90;;;;;;2614720;54;20415;-76
2023/02/03 22:31:07;;;;;;;22.97;7.50;;;7.80;99.90;;;;;;2614424;54;20439;-76
2023/02/03 22:36:55;;;;;;;22.50;6.83;;;7.80;99.90;;;;;;2613819;54;20469;-76
2023/02/03 22:42:43;;;;;;;23.60;6.80;;;7.70;99.90;;;;;;2615899;54;20149;-76
2023/02/03 22:48:30;;;;;;;20.60;7.10;;;7.60;99.90;;;;;;2615694;54;20135;-76
2023/02/03 22:54:18;;;;;;;20.20;6.17;;;7.60;99.90;;;;;;2616216;54;20123;-76
2023/02/03 23:00:11;;;;;;;19.63;7.13;;;7.70;99.90;;;;;;2615465;39;20611;-77
2023/02/03 23:06:01;;;;;;;13.53;6.40;;;7.60;99.90;;;;;;2615984;54;20399;-75
2023/02/03 23:11:49;;;;;;;19.70;5.40;;;7.50;99.90;;;;;;2615111;54;20508;-76
2023/02/03 23:17:37;;;;;;;13.43;5.70;;;7.50;99.90;;;;;;2615288;54;20672;-81
2023/02/03 23:20:49;;;;;;;10.60;4.90;;;7.50;99.90;;;;;;2616094;54;20428;-76
2023/02/03 23:23:14;;;;;;;16.67;8.67;;;7.60;99.90;;;;;;2616098;54;20965;-75
2023/02/03 23:29:02;;;;;;;26.13;6.70;;;7.60;99.90;;;;;;2614490;54;20173;-76
2023/02/03 23:40:57;;;;;;;18.13;5.30;;;7.30;99.90;;;;;;2616111;54;20488;-77
2023/02/03 23:46:44;;;;;;;20.77;6.77;;;7.40;99.90;;;;;;2613810;54;20155;-77
2023/02/03 23:52:34;;;;;;;18.37;6.90;;;7.20;99.90;;;;;;2617157;39;20528;-76
2023/02/03 23:58:22;;;;;;;15.30;5.87;;;7.10;99.90;;;;;;2614826;39;20781;-75
